createdAt,value
2023-02-19T00:00:09.354Z,18.50
2023-02-19T00:02:39.884Z,15.90
2023-02-19T00:05:06.771Z,19.20
2023-02-19T00:07:33.567Z,15.60
2023-02-19T00:10:00.206Z,18.10
2023-02-19T00:12:27.865Z,15.30
2023-02-19T00:14:55.690Z,18.90
2023-02-19T00:17:22.300Z,15.40
2023-02-19T00:19:48.902Z,15.10
2023-02-19T00:22:15.654Z,15.20
2023-02-19T00:24:42.309Z,14.10
2023-02-19T00:27:09.124Z,16.00
2023-02-19T00:29:35.981Z,16.70
2023-02-19T00:32:03.063Z,13.90
2023-02-19T00:34:29.862Z,16.90
2023-02-19T00:36:56.504Z,15.30
2023-02-19T00:39:23.137Z,15.50
2023-02-19T00:41:49.984Z,16.00
2023-02-19T00:44:16.827Z,14.00
2023-02-19T00:46:48.190Z,15.20
2023-02-19T00:49:17.074Z,13.60
2023-02-19T00:51:43.785Z,14.30
2023-02-19T00:54:11.169Z,16.60
2023-02-19T00:56:38.005Z,14.40
2023-02-19T00:59:04.846Z,14.20
2023-02-19T01:01:31.734Z,14.80
2023-02-19T01:03:58.612Z,12.90
2023-02-19T01:06:25.374Z,15.40
2023-02-19T01:08:52.212Z,15.30
2023-02-19T01:11:20.484Z,14.20
2023-02-19T01:13:47.357Z,13.30
2023-02-19T01:16:14.111Z,14.20
2023-02-19T01:18:41.219Z,12.50
2023-02-19T01:21:09.578Z,11.90
2023-02-19T01:23:36.952Z,11.40
2023-02-19T01:26:04.832Z,11.90
2023-02-19T01:28:31.653Z,12.90
2023-02-19T01:31:01.389Z,10.20
2023-02-19T01:33:28.212Z,15.10
2023-02-19T01:35:55.058Z,15.80
2023-02-19T01:38:21.899Z,20.30
2023-02-19T01:40:56.322Z,16.60
2023-02-19T01:43:23.352Z,17.00
2023-02-19T01:45:50.617Z,19.30
2023-02-19T01:48:24.007Z,14.40
2023-02-19T01:50:52.897Z,14.80
2023-02-19T01:53:22.770Z,15.30
2023-02-19T01:55:51.973Z,12.80
2023-02-19T01:58:19.159Z,13.70
2023-02-19T02:00:45.802Z,11.70
2023-02-19T02:03:12.863Z,13.20
2023-02-19T02:05:49.117Z,12.20
2023-02-19T02:08:35.917Z,11.60
2023-02-19T02:11:03.684Z,15.60
2023-02-19T02:13:32.573Z,13.00
2023-02-19T02:16:11.573Z,11.90
2023-02-19T02:18:46.134Z,13.90
2023-02-19T02:21:21.391Z,15.10
2023-02-19T02:23:48.213Z,14.50
2023-02-19T02:26:21.001Z,14.50
2023-02-19T02:28:59.916Z,14.70
2023-02-19T02:31:39.106Z,14.50
2023-02-19T02:34:11.219Z,14.10
2023-02-19T02:36:39.899Z,12.30
2023-02-19T02:39:10.428Z,16.80
2023-02-19T02:42:09.840Z,16.20
2023-02-19T02:44:37.124Z,14.20
2023-02-19T02:47:07.007Z,14.50
2023-02-19T02:49:54.275Z,15.20
2023-02-19T02:52:40.415Z,16.20
2023-02-19T02:55:09.926Z,18.40
2023-02-19T02:57:36.841Z,17.10
2023-02-19T03:00:04.226Z,15.80
2023-02-19T03:02:31.775Z,17.90
2023-02-19T03:05:24.733Z,18.10
2023-02-19T03:08:04.523Z,15.20
2023-02-19T03:10:37.679Z,18.80
2023-02-19T03:13:24.999Z,14.30
2023-02-19T03:16:20.989Z,16.70
2023-02-19T03:19:09.095Z,17.40
2023-02-19T03:21:38.478Z,16.20
2023-02-19T03:24:29.164Z,15.40
2023-02-19T03:26:57.254Z,16.20
2023-02-19T03:29:26.538Z,16.40
2023-02-19T03:32:02.940Z,15.60
2023-02-19T03:34:42.155Z,18.50
2023-02-19T03:37:15.114Z,17.10
2023-02-19T03:39:44.654Z,18.70
2023-02-19T03:42:13.525Z,16.80
2023-02-19T03:45:07.995Z,17.10
2023-02-19T03:47:44.063Z,17.20
2023-02-19T03:50:25.097Z,15.90
2023-02-19T03:52:51.874Z,18.90
2023-02-19T03:55:27.545Z,16.50
2023-02-19T03:57:59.080Z,16.80
2023-02-19T04:00:35.548Z,18.90
2023-02-19T04:03:15.091Z,18.40
2023-02-19T04:05:45.412Z,20.90
2023-02-19T04:08:15.533Z,20.50
2023-02-19T04:10:46.475Z,26.00
2023-02-19T04:13:19.663Z,26.30
2023-02-19T04:15:47.356Z,46.00
2023-02-19T04:18:19.201Z,31.30
2023-02-19T04:20:46.981Z,27.80
2023-02-19T04:23:14.853Z,22.20
2023-02-19T04:25:43.933Z,17.40
2023-02-19T04:28:10.591Z,17.00
2023-02-19T04:30:37.518Z,18.20
2023-02-19T04:33:04.419Z,21.40
2023-02-19T04:35:31.282Z,20.50
2023-02-19T04:37:58.124Z,21.00
2023-02-19T04:40:24.966Z,21.40
2023-02-19T04:42:51.809Z,20.70
2023-02-19T04:45:19.064Z,23.10
2023-02-19T04:47:45.909Z,19.20
2023-02-19T04:50:12.947Z,21.80
2023-02-19T04:52:40.000Z,21.10
2023-02-19T04:55:07.448Z,20.00
2023-02-19T04:57:34.659Z,22.20
2023-02-19T05:00:01.745Z,21.00
2023-02-19T05:02:28.386Z,19.90
2023-02-19T05:04:55.236Z,21.30
2023-02-19T05:07:22.073Z,22.70
2023-02-19T05:09:48.914Z,20.50
2023-02-19T05:12:15.762Z,21.70
2023-02-19T05:14:42.806Z,23.10
2023-02-19T05:17:09.458Z,22.50
2023-02-19T05:19:36.283Z,23.30
2023-02-19T05:22:03.135Z,27.30
2023-02-19T05:24:31.820Z,25.00
2023-02-19T05:26:58.674Z,20.50
2023-02-19T05:29:25.370Z,23.90
2023-02-19T05:31:52.224Z,25.50
2023-02-19T05:34:19.176Z,23.00
2023-02-19T05:36:46.028Z,25.10
2023-02-19T05:39:12.867Z,24.20
2023-02-19T05:41:39.557Z,23.10
2023-02-19T05:44:06.341Z,29.40
2023-02-19T05:46:33.416Z,25.20
2023-02-19T05:49:00.201Z,29.90
2023-02-19T05:51:27.701Z,25.80
2023-02-19T05:53:55.770Z,29.00
2023-02-19T05:56:41.853Z,26.30
2023-02-19T05:59:08.596Z,22.70
2023-02-19T06:01:35.621Z,24.40
2023-02-19T06:04:02.447Z,19.90
2023-02-19T06:06:29.435Z,21.90
2023-02-19T06:08:56.266Z,19.80
2023-02-19T06:11:23.529Z,19.10
2023-02-19T06:13:50.780Z,17.50
2023-02-19T06:16:18.474Z,19.20
2023-02-19T06:18:46.434Z,19.70
2023-02-19T06:21:13.970Z,19.00
2023-02-19T06:23:41.220Z,17.10
2023-02-19T06:26:10.750Z,17.80
2023-02-19T06:28:38.175Z,16.40
2023-02-19T06:31:05.892Z,19.90
2023-02-19T06:33:33.095Z,20.90
2023-02-19T06:36:00.988Z,19.60
2023-02-19T06:38:28.415Z,12.50
2023-02-19T06:40:55.868Z,16.90
2023-02-19T06:43:22.723Z,15.70
2023-02-19T06:45:49.567Z,14.20
2023-02-19T06:48:16.408Z,14.30
2023-02-19T06:50:43.011Z,15.90
2023-02-19T06:53:11.727Z,16.70
2023-02-19T06:55:40.616Z,18.40
2023-02-19T06:58:07.851Z,18.10
2023-02-19T07:00:35.371Z,19.70
2023-02-19T07:03:03.878Z,20.30
2023-02-19T07:05:31.965Z,20.70
2023-02-19T07:07:58.722Z,19.60
2023-02-19T07:10:25.555Z,16.20
2023-02-19T07:12:52.401Z,15.80
2023-02-19T07:15:19.245Z,14.20
2023-02-19T07:17:46.088Z,12.70
2023-02-19T07:20:13.339Z,12.00
2023-02-19T07:22:40.185Z,10.40
2023-02-19T07:25:07.230Z,11.50
2023-02-19T07:27:33.864Z,12.50
2023-02-19T07:30:00.872Z,11.80
2023-02-19T07:32:27.756Z,16.60
2023-02-19T07:34:54.596Z,57.80
2023-02-19T07:37:21.445Z,39.30
2023-02-19T07:39:49.106Z,26.80
2023-02-19T07:42:15.750Z,20.30
2023-02-19T07:44:42.401Z,17.00
2023-02-19T07:47:09.021Z,16.10
2023-02-19T07:49:35.658Z,14.10
2023-02-19T07:52:02.324Z,14.00
2023-02-19T07:54:29.136Z,15.00
2023-02-19T07:56:55.978Z,16.50
2023-02-19T07:59:22.729Z,14.40
2023-02-19T08:02:08.506Z,14.80
2023-02-19T08:04:35.959Z,25.50
2023-02-19T08:07:02.804Z,43.70
2023-02-19T08:09:29.662Z,37.10
2023-02-19T08:12:15.535Z,23.50
2023-02-19T08:14:42.216Z,17.30
2023-02-19T08:17:08.846Z,15.60
2023-02-19T08:19:35.472Z,27.40
2023-02-19T08:22:02.296Z,26.20
2023-02-19T08:24:29.138Z,23.40
2023-02-19T08:26:55.976Z,20.50
2023-02-19T08:29:22.836Z,22.10
2023-02-19T08:31:49.806Z,20.40
2023-02-19T08:34:16.708Z,14.30
2023-02-19T08:36:44.320Z,13.20
2023-02-19T08:39:10.955Z,16.50
2023-02-19T08:41:37.864Z,18.80
2023-02-19T08:44:04.693Z,15.20
2023-02-19T08:46:34.340Z,13.20
2023-02-19T08:49:01.269Z,12.50
2023-02-19T08:51:28.085Z,10.70
2023-02-19T08:53:54.712Z,10.80
2023-02-19T08:56:21.401Z,10.00
2023-02-19T08:58:48.406Z,11.00
2023-02-19T09:01:16.710Z,11.50
2023-02-19T09:03:43.528Z,9.20
2023-02-19T09:06:14.870Z,14.00
2023-02-19T09:08:41.560Z,12.50
2023-02-19T09:11:08.646Z,11.80
2023-02-19T09:13:35.804Z,13.70
2023-02-19T09:16:03.737Z,12.00
2023-02-19T09:18:30.518Z,13.20
2023-02-19T09:21:00.640Z,11.90
2023-02-19T09:23:27.478Z,11.10
2023-02-19T09:26:01.062Z,11.30
2023-02-19T09:28:28.072Z,12.10
2023-02-19T09:30:55.496Z,13.40
2023-02-19T09:33:22.836Z,11.70
2023-02-19T09:35:49.685Z,10.70
2023-02-19T09:38:16.484Z,11.60
2023-02-19T09:40:43.562Z,21.80
2023-02-19T09:43:13.477Z,13.70
2023-02-19T09:45:40.542Z,17.00
2023-02-19T09:48:07.786Z,15.30
2023-02-19T09:50:37.083Z,11.50
2023-02-19T09:53:06.914Z,11.10
2023-02-19T09:55:36.707Z,13.30
2023-02-19T09:58:26.083Z,9.60
2023-02-19T10:00:55.779Z,11.80
2023-02-19T10:03:32.864Z,10.50
2023-02-19T10:06:03.214Z,11.20
2023-02-19T10:08:32.692Z,12.70
2023-02-19T10:11:00.556Z,11.60
2023-02-19T10:13:34.922Z,28.00
2023-02-19T10:16:03.232Z,19.50
2023-02-19T10:18:33.897Z,14.30
2023-02-19T10:21:01.858Z,18.90
2023-02-19T10:23:29.108Z,15.80
2023-02-19T10:25:57.404Z,13.10
2023-02-19T10:28:27.499Z,13.90
2023-02-19T10:30:56.432Z,9.60
2023-02-19T10:33:24.056Z,12.50
2023-02-19T10:36:06.255Z,11.20
2023-02-19T10:38:35.719Z,9.80
2023-02-19T10:41:15.307Z,10.00
2023-02-19T10:43:44.394Z,11.40
2023-02-19T10:46:23.247Z,12.10
2023-02-19T10:48:58.569Z,9.80
2023-02-19T10:51:36.676Z,24.20
2023-02-19T10:54:20.517Z,25.10
2023-02-19T10:56:47.908Z,19.00
2023-02-19T10:59:16.451Z,16.60
2023-02-19T11:02:03.489Z,16.40
2023-02-19T11:04:34.378Z,16.50
2023-02-19T11:07:08.517Z,10.40
2023-02-19T11:09:38.738Z,10.90
2023-02-19T11:12:09.214Z,12.40
2023-02-19T11:14:37.231Z,9.80
2023-02-19T11:17:05.913Z,11.60
2023-02-19T11:19:44.032Z,12.10
2023-02-19T11:22:31.053Z,12.20
2023-02-19T11:25:02.938Z,12.30
2023-02-19T11:27:30.157Z,13.80
2023-02-19T11:30:17.108Z,11.20
2023-02-19T11:32:45.337Z,9.90
2023-02-19T11:35:24.067Z,12.20
2023-02-19T11:37:54.185Z,11.50
2023-02-19T11:40:23.136Z,9.00
2023-02-19T11:43:07.938Z,15.70
2023-02-19T11:45:40.093Z,11.60
2023-02-19T11:48:09.825Z,9.80
2023-02-19T11:51:06.148Z,12.00
2023-02-19T11:53:35.449Z,10.20
2023-02-19T11:56:24.398Z,13.40
2023-02-19T11:59:01.901Z,13.10
2023-02-19T12:01:29.795Z,13.00
2023-02-19T12:04:32.247Z,9.90
2023-02-19T12:07:16.938Z,13.00
2023-02-19T12:09:54.198Z,12.90
2023-02-19T12:12:22.060Z,12.80
2023-02-19T12:15:20.450Z,7.90
2023-02-19T12:18:04.698Z,9.20
2023-02-19T12:20:38.494Z,9.10
2023-02-19T12:23:24.595Z,8.90
2023-02-19T12:25:51.847Z,11.00
2023-02-19T12:28:34.078Z,9.60
2023-02-19T12:31:08.239Z,10.50
2023-02-19T12:34:03.983Z,9.80
2023-02-19T12:36:30.830Z,10.50
2023-02-19T12:38:58.282Z,9.50
2023-02-19T12:41:38.854Z,10.30
2023-02-19T12:44:10.299Z,7.60
2023-02-19T12:46:40.258Z,8.90
2023-02-19T12:49:08.803Z,10.00
2023-02-19T12:51:36.250Z,8.30
2023-02-19T12:54:25.618Z,9.60
2023-02-19T12:57:00.208Z,10.90
2023-02-19T12:59:27.303Z,11.40
2023-02-19T13:01:57.869Z,10.20
2023-02-19T13:04:31.025Z,8.60
2023-02-19T13:07:01.956Z,9.20
2023-02-19T13:09:37.819Z,7.80
2023-02-19T13:12:08.553Z,8.10
2023-02-19T13:14:39.082Z,11.00
2023-02-19T13:17:31.316Z,8.70
2023-02-19T13:20:09.696Z,15.60
2023-02-19T13:22:59.621Z,7.70
2023-02-19T13:25:37.312Z,8.70
2023-02-19T13:28:04.367Z,8.30
2023-02-19T13:30:32.934Z,8.10
2023-02-19T13:33:22.982Z,8.90
2023-02-19T13:35:58.787Z,8.30
2023-02-19T13:38:26.250Z,10.00
2023-02-19T13:40:55.220Z,8.60
2023-02-19T13:43:37.577Z,8.60
2023-02-19T13:46:10.046Z,10.50
2023-02-19T13:48:38.566Z,7.70
2023-02-19T13:51:24.163Z,64.00
2023-02-19T13:53:58.601Z,15.90
2023-02-19T13:56:36.086Z,9.10
2023-02-19T13:59:14.008Z,9.30
2023-02-19T14:01:56.804Z,9.10
2023-02-19T14:04:43.737Z,7.00
2023-02-19T14:07:11.786Z,9.30
2023-02-19T14:09:41.332Z,10.10
2023-02-19T14:12:13.076Z,10.40
2023-02-19T14:14:47.070Z,8.20
2023-02-19T14:17:27.206Z,7.70
2023-02-19T14:19:59.330Z,8.50
2023-02-19T14:22:45.110Z,8.20
2023-02-19T14:25:16.417Z,9.10
2023-02-19T14:27:45.097Z,9.60
2023-02-19T14:30:13.829Z,7.70
2023-02-19T14:32:45.091Z,6.90
2023-02-19T14:35:23.031Z,7.50
2023-02-19T14:37:52.031Z,9.50
2023-02-19T14:40:25.729Z,6.50
2023-02-19T14:42:57.272Z,6.10
2023-02-19T14:45:26.142Z,8.30
2023-02-19T14:47:55.668Z,8.80
2023-02-19T14:50:29.287Z,7.00
2023-02-19T14:53:02.671Z,6.70
2023-02-19T14:55:36.068Z,6.40
2023-02-19T14:58:23.135Z,6.20
2023-02-19T15:00:51.461Z,6.10
2023-02-19T15:03:32.028Z,6.50
2023-02-19T15:06:08.172Z,8.20
2023-02-19T15:08:38.402Z,6.90
2023-02-19T15:11:10.041Z,8.40
2023-02-19T15:13:39.049Z,7.60
2023-02-19T15:16:06.945Z,7.10
2023-02-19T15:18:36.882Z,9.20
2023-02-19T15:21:06.813Z,5.90
2023-02-19T15:23:37.076Z,6.80
2023-02-19T15:26:05.966Z,9.00
2023-02-19T15:28:35.491Z,6.70
2023-02-19T15:31:03.501Z,7.40
2023-02-19T15:33:34.378Z,6.40
2023-02-19T15:36:09.946Z,6.80
2023-02-19T15:38:37.557Z,6.00
2023-02-19T15:41:10.932Z,7.30
2023-02-19T15:43:41.778Z,8.50
2023-02-19T15:46:16.784Z,7.10
2023-02-19T15:48:49.815Z,10.00
2023-02-19T15:51:22.524Z,6.70
2023-02-19T15:53:53.865Z,7.30
2023-02-19T15:56:28.870Z,7.30
2023-02-19T15:59:15.409Z,8.80
2023-02-19T16:01:43.409Z,13.80
2023-02-19T16:04:15.895Z,14.40
2023-02-19T16:06:54.772Z,11.10
2023-02-19T16:09:48.283Z,19.80
2023-02-19T16:12:20.670Z,21.70
2023-02-19T16:14:50.237Z,18.70
2023-02-19T16:17:21.151Z,44.70
2023-02-19T16:19:55.683Z,18.20
2023-02-19T16:22:37.422Z,17.30
2023-02-19T16:25:06.618Z,14.40
2023-02-19T16:27:35.326Z,12.10
2023-02-19T16:30:26.283Z,12.10
2023-02-19T16:33:13.190Z,11.70
2023-02-19T16:35:41.034Z,10.70
2023-02-19T16:38:16.075Z,11.30
2023-02-19T16:40:44.563Z,8.80
2023-02-19T16:43:16.323Z,11.70
2023-02-19T16:45:46.898Z,52.20
2023-02-19T16:48:15.133Z,46.30
2023-02-19T16:50:44.014Z,35.30
2023-02-19T16:53:29.632Z,28.80
2023-02-19T16:55:57.822Z,43.10
2023-02-19T16:58:25.435Z,47.90
2023-02-19T17:00:56.762Z,87.30
2023-02-19T17:03:25.477Z,29.60
2023-02-19T17:05:55.077Z,25.40
2023-02-19T17:08:24.468Z,22.10
2023-02-19T17:10:52.574Z,18.80
2023-02-19T17:13:24.099Z,16.40
2023-02-19T17:15:52.789Z,18.20
2023-02-19T17:18:21.269Z,17.40
2023-02-19T17:20:52.682Z,18.50
2023-02-19T17:23:20.071Z,17.90
2023-02-19T17:25:51.623Z,16.50
2023-02-19T17:28:20.512Z,17.80
2023-02-19T17:30:49.195Z,21.40
2023-02-19T17:33:17.481Z,18.30
2023-02-19T17:35:48.113Z,31.40
2023-02-19T17:38:16.889Z,36.40
2023-02-19T17:40:49.115Z,30.60
2023-02-19T17:43:17.339Z,28.80
2023-02-19T17:45:46.066Z,28.00
2023-02-19T17:48:15.724Z,26.10
2023-02-19T17:50:47.585Z,25.00
2023-02-19T17:53:16.445Z,29.00
2023-02-19T17:55:45.371Z,32.70
2023-02-19T17:58:15.290Z,42.00
2023-02-19T18:00:44.075Z,40.80
2023-02-19T18:03:12.662Z,36.50
2023-02-19T18:05:41.570Z,31.00
2023-02-19T18:08:10.538Z,33.10
2023-02-19T18:10:42.007Z,34.40
2023-02-19T18:13:11.806Z,28.40
2023-02-19T18:15:40.488Z,33.70
2023-02-19T18:18:13.794Z,61.70
2023-02-19T18:20:45.067Z,31.30
2023-02-19T18:23:13.522Z,30.20
2023-02-19T18:25:42.510Z,23.80
2023-02-19T18:28:11.406Z,29.40
2023-02-19T18:30:40.456Z,26.00
2023-02-19T18:33:08.968Z,23.60
2023-02-19T18:35:39.411Z,20.80
2023-02-19T18:38:08.192Z,39.10
2023-02-19T18:40:37.187Z,37.50
2023-02-19T18:43:06.577Z,48.50
2023-02-19T18:45:38.098Z,24.80
2023-02-19T18:48:06.104Z,30.40
2023-02-19T18:50:36.331Z,28.00
2023-02-19T18:53:06.440Z,24.20
2023-02-19T18:55:35.537Z,22.40
2023-02-19T18:58:05.674Z,26.50
2023-02-19T19:00:39.256Z,32.40
2023-02-19T19:03:10.964Z,37.70
2023-02-19T19:05:39.096Z,35.60
2023-02-19T19:08:09.008Z,33.20
2023-02-19T19:10:39.355Z,34.60
2023-02-19T19:13:08.015Z,35.40
2023-02-19T19:15:36.865Z,30.70
2023-02-19T19:18:08.533Z,30.30
2023-02-19T19:20:37.352Z,30.90
2023-02-19T19:23:07.175Z,31.00
2023-02-19T19:25:38.307Z,25.20
2023-02-19T19:28:06.918Z,26.00
2023-02-19T19:30:37.877Z,25.40
2023-02-19T19:33:07.241Z,26.80
2023-02-19T19:35:50.768Z,25.70
2023-02-19T19:38:19.136Z,25.00
2023-02-19T19:40:46.601Z,23.10
2023-02-19T19:43:15.388Z,21.40
2023-02-19T19:45:44.374Z,25.70
2023-02-19T19:48:15.499Z,22.80
2023-02-19T19:50:46.988Z,22.30
2023-02-19T19:53:15.147Z,21.50
2023-02-19T19:55:42.743Z,20.70
2023-02-19T19:58:12.739Z,23.80
2023-02-19T20:00:41.614Z,21.60
2023-02-19T20:03:11.459Z,20.70
2023-02-19T20:05:40.110Z,23.60
2023-02-19T20:08:08.286Z,17.00
2023-02-19T20:10:37.018Z,19.40
2023-02-19T20:13:04.626Z,19.90
2023-02-19T20:15:33.660Z,22.60
2023-02-19T20:18:02.613Z,30.50
2023-02-19T20:20:31.658Z,27.20
2023-02-19T20:23:05.425Z,25.10
2023-02-19T20:25:34.416Z,27.00
2023-02-19T20:28:02.685Z,25.80
2023-02-19T20:30:31.626Z,24.10
2023-02-19T20:33:00.776Z,21.60
2023-02-19T20:35:33.352Z,17.60
2023-02-19T20:38:05.924Z,19.40
2023-02-19T20:40:34.281Z,18.40
2023-02-19T20:43:04.214Z,20.30
2023-02-19T20:45:32.081Z,18.70
2023-02-19T20:48:00.010Z,20.70
2023-02-19T20:50:28.539Z,21.00
2023-02-19T20:52:58.545Z,20.10
2023-02-19T20:55:26.415Z,20.50
2023-02-19T20:57:56.241Z,18.70
2023-02-19T21:00:24.402Z,22.60
2023-02-19T21:02:54.699Z,20.30
2023-02-19T21:05:23.180Z,21.80
2023-02-19T21:07:53.498Z,19.50
2023-02-19T21:10:21.920Z,20.50
2023-02-19T21:12:51.929Z,16.80
2023-02-19T21:15:21.640Z,23.30
2023-02-19T21:17:50.529Z,19.90
2023-02-19T21:20:25.116Z,19.80
2023-02-19T21:22:54.244Z,16.90
2023-02-19T21:25:22.323Z,18.90
2023-02-19T21:27:49.970Z,19.30
2023-02-19T21:30:18.493Z,18.10
2023-02-19T21:32:50.829Z,19.70
2023-02-19T21:35:18.087Z,21.90
2023-02-19T21:37:45.454Z,19.40
2023-02-19T21:40:13.002Z,21.90
2023-02-19T21:42:41.893Z,19.90
2023-02-19T21:45:09.794Z,22.90
2023-02-19T21:47:36.799Z,22.60
2023-02-19T21:50:03.817Z,20.70
2023-02-19T21:52:31.313Z,20.60
2023-02-19T21:54:58.355Z,21.80
2023-02-19T21:57:25.606Z,23.00
2023-02-19T21:59:52.571Z,20.80
2023-02-19T22:02:22.385Z,24.60
2023-02-19T22:04:53.936Z,24.40
2023-02-19T22:07:21.799Z,19.00
2023-02-19T22:09:50.059Z,20.80
2023-02-19T22:12:17.318Z,23.10
2023-02-19T22:14:44.604Z,23.60
2023-02-19T22:17:12.021Z,26.00
2023-02-19T22:19:39.479Z,24.60
2023-02-19T22:22:06.170Z,21.40
2023-02-19T22:24:32.953Z,25.10
2023-02-19T22:26:59.807Z,23.70
2023-02-19T22:29:26.635Z,24.00
2023-02-19T22:31:53.551Z,26.30
2023-02-19T22:34:20.332Z,22.10
2023-02-19T22:36:47.250Z,21.20
2023-02-19T22:39:21.438Z,25.80
2023-02-19T22:41:48.545Z,27.00
2023-02-19T22:44:15.689Z,24.80
2023-02-19T22:46:46.415Z,20.20
2023-02-19T22:49:13.251Z,23.70
2023-02-19T22:51:40.712Z,25.40
2023-02-19T22:54:07.560Z,20.00
2023-02-19T22:56:34.392Z,18.60
2023-02-19T22:59:01.240Z,20.70
2023-02-19T23:01:28.114Z,20.10
2023-02-19T23:03:55.955Z,18.70
2023-02-19T23:06:27.092Z,18.20
2023-02-19T23:08:54.964Z,20.10
2023-02-19T23:11:22.834Z,28.80
2023-02-19T23:13:49.671Z,28.80
2023-02-19T23:16:16.784Z,35.10
2023-02-19T23:18:43.560Z,40.60
2023-02-19T23:21:10.829Z,39.30
2023-02-19T23:23:37.863Z,49.00
2023-02-19T23:26:04.920Z,31.20
2023-02-19T23:28:31.594Z,30.60
2023-02-19T23:30:58.522Z,29.70
2023-02-19T23:33:26.674Z,30.00
2023-02-19T23:35:53.513Z,28.50
2023-02-19T23:38:20.370Z,29.50
2023-02-19T23:40:47.188Z,33.30
2023-02-19T23:43:14.068Z,37.90
2023-02-19T23:45:40.908Z,38.80
2023-02-19T23:48:07.550Z,32.20
2023-02-19T23:50:34.349Z,41.20
2023-02-19T23:53:01.189Z,40.40
2023-02-19T23:55:28.041Z,41.00
2023-02-19T23:57:54.883Z,36.20
